createdAt,value
2022-12-01T00:01:04.752Z,27.27
2022-12-01T00:03:27.662Z,28.70
2022-12-01T00:05:58.561Z,26.37
2022-12-01T00:08:20.846Z,27.83
2022-12-01T00:10:43.250Z,25.70
2022-12-01T00:13:06.696Z,30.17
2022-12-01T00:15:30.670Z,26.33
2022-12-01T00:17:53.838Z,29.27
2022-12-01T00:20:17.098Z,28.30
2022-12-01T00:22:39.568Z,27.23
2022-12-01T00:25:02.092Z,26.60
2022-12-01T00:27:24.503Z,28.30
2022-12-01T00:29:47.569Z,27.43
2022-12-01T00:32:10.429Z,27.37
2022-12-01T00:34:33.151Z,26.10
2022-12-01T00:36:58.989Z,27.57
2022-12-01T00:39:27.461Z,28.63
2022-12-01T00:41:50.407Z,25.47
2022-12-01T00:44:16.328Z,25.83
2022-12-01T00:46:39.382Z,23.67
2022-12-01T00:49:04.973Z,26.87
2022-12-01T00:51:35.522Z,28.10
2022-12-01T00:54:00.520Z,26.33
2022-12-01T00:56:23.066Z,25.97
2022-12-01T00:58:45.499Z,23.57
2022-12-01T01:01:08.075Z,26.83
2022-12-01T01:03:30.674Z,24.77
2022-12-01T01:05:53.326Z,28.40
2022-12-01T01:08:17.418Z,25.53
2022-12-01T01:10:40.462Z,23.73
2022-12-01T01:13:03.618Z,25.50
2022-12-01T01:15:26.440Z,26.27
2022-12-01T01:17:50.857Z,27.90
2022-12-01T01:20:14.112Z,25.03
2022-12-01T01:22:36.544Z,25.37
2022-12-01T01:24:58.876Z,27.43
2022-12-01T01:27:21.428Z,25.20
2022-12-01T01:29:43.930Z,26.67
2022-12-01T01:32:06.592Z,26.67
2022-12-01T01:34:31.888Z,26.30
2022-12-01T01:36:54.759Z,27.70
2022-12-01T01:39:20.062Z,26.10
2022-12-01T01:41:42.863Z,28.37
2022-12-01T01:44:24.398Z,23.10
2022-12-01T01:46:47.552Z,25.43
2022-12-01T01:49:12.443Z,25.93
2022-12-01T01:51:41.152Z,24.43
2022-12-01T01:54:13.093Z,23.70
2022-12-01T01:56:36.564Z,26.00
2022-12-01T01:58:59.699Z,22.73
2022-12-01T02:01:22.486Z,25.47
2022-12-01T02:03:46.736Z,26.77
2022-12-01T02:06:10.602Z,25.37
2022-12-01T02:08:35.900Z,26.50
2022-12-01T02:11:08.087Z,24.30
2022-12-01T02:13:34.207Z,26.20
2022-12-01T02:16:01.992Z,27.23
2022-12-01T02:18:39.059Z,28.30
2022-12-01T02:21:01.298Z,25.17
2022-12-01T02:23:27.206Z,25.90
2022-12-01T02:25:56.052Z,25.73
2022-12-01T02:28:27.442Z,24.50
2022-12-01T02:30:51.771Z,26.07
2022-12-01T02:33:24.524Z,25.33
2022-12-01T02:35:46.709Z,25.17
2022-12-01T02:38:09.157Z,21.63
2022-12-01T02:40:43.550Z,27.23
2022-12-01T02:43:05.795Z,22.30
2022-12-01T02:45:41.589Z,21.03
2022-12-01T02:48:11.888Z,21.70
2022-12-01T02:50:35.899Z,24.43
2022-12-01T02:52:58.346Z,21.40
2022-12-01T02:55:20.742Z,20.17
2022-12-01T02:57:42.977Z,20.67
2022-12-01T03:00:06.653Z,20.60
2022-12-01T03:02:43.434Z,19.83
2022-12-01T03:05:09.763Z,19.90
2022-12-01T03:07:40.704Z,18.77
2022-12-01T03:10:13.028Z,19.37
2022-12-01T03:12:35.281Z,19.20
2022-12-01T03:14:57.493Z,19.60
2022-12-01T03:17:24.969Z,18.93
2022-12-01T03:19:51.113Z,18.83
2022-12-01T03:22:15.450Z,18.03
2022-12-01T03:24:39.045Z,17.67
2022-12-01T03:27:03.089Z,17.57
2022-12-01T03:29:31.290Z,18.13
2022-12-01T03:31:59.940Z,19.20
2022-12-01T03:34:27.807Z,20.40
2022-12-01T03:36:55.913Z,15.10
2022-12-01T03:39:22.077Z,15.43
2022-12-01T03:41:48.032Z,17.20
2022-12-01T03:44:16.923Z,16.97
2022-12-01T03:46:44.543Z,17.67
2022-12-01T03:49:08.860Z,14.77
2022-12-01T03:51:40.591Z,15.70
2022-12-01T03:54:13.739Z,15.30
2022-12-01T03:56:42.783Z,15.03
2022-12-01T03:59:06.659Z,16.40
2022-12-01T04:01:32.958Z,14.10
2022-12-01T04:03:55.606Z,15.87
2022-12-01T04:06:17.874Z,15.90
2022-12-01T04:08:40.335Z,16.17
2022-12-01T04:11:22.671Z,15.57
2022-12-01T04:13:44.902Z,13.20
2022-12-01T04:16:07.511Z,14.07
2022-12-01T04:18:29.700Z,15.30
2022-12-01T04:20:51.957Z,15.03
2022-12-01T04:23:34.190Z,14.87
2022-12-01T04:25:59.080Z,15.20
2022-12-01T04:28:21.242Z,15.27
2022-12-01T04:30:43.426Z,13.93
2022-12-01T04:33:05.797Z,16.20
2022-12-01T04:35:28.093Z,17.10
2022-12-01T04:37:50.291Z,14.97
2022-12-01T04:40:12.715Z,14.17
2022-12-01T04:42:34.958Z,16.10
2022-12-01T04:44:57.237Z,13.90
2022-12-01T04:47:19.425Z,14.17
2022-12-01T04:49:41.594Z,13.23
2022-12-01T04:52:04.396Z,13.63
2022-12-01T04:54:26.697Z,12.40
2022-12-01T04:56:49.192Z,12.13
2022-12-01T04:59:11.780Z,15.70
2022-12-01T05:01:34.161Z,15.37
2022-12-01T05:03:56.587Z,12.77
2022-12-01T05:06:23.643Z,15.50
2022-12-01T05:08:46.255Z,12.57
2022-12-01T05:11:09.033Z,13.63
2022-12-01T05:13:31.283Z,13.63
2022-12-01T05:15:53.927Z,14.03
2022-12-01T05:18:16.238Z,13.50
2022-12-01T05:20:57.157Z,13.53
2022-12-01T05:23:19.400Z,12.17
2022-12-01T05:25:42.481Z,13.10
2022-12-01T05:28:06.596Z,10.50
2022-12-01T05:30:29.110Z,13.17
2022-12-01T05:32:51.390Z,10.87
2022-12-01T05:35:13.687Z,12.23
2022-12-01T05:37:35.879Z,11.43
2022-12-01T05:39:58.382Z,11.60
2022-12-01T05:42:20.624Z,13.33
2022-12-01T05:44:42.947Z,10.50
2022-12-01T05:47:05.168Z,11.37
2022-12-01T05:49:27.459Z,11.43
2022-12-01T05:51:49.700Z,11.00
2022-12-01T05:54:12.015Z,11.20
2022-12-01T05:56:34.233Z,10.37
2022-12-01T05:58:56.654Z,9.73
2022-12-01T06:01:18.895Z,10.97
2022-12-01T06:03:41.239Z,11.07
2022-12-01T06:06:03.579Z,9.30
2022-12-01T06:08:25.981Z,8.97
2022-12-01T06:10:48.245Z,10.10
2022-12-01T06:13:10.614Z,10.93
2022-12-01T06:15:32.912Z,10.43
2022-12-01T06:17:55.062Z,9.70
2022-12-01T06:20:17.403Z,9.40
2022-12-01T06:22:39.802Z,9.40
2022-12-01T06:25:02.182Z,9.47
2022-12-01T06:27:24.451Z,10.17
2022-12-01T06:29:46.679Z,9.83
2022-12-01T06:32:09.067Z,9.53
2022-12-01T06:34:31.424Z,11.07
2022-12-01T06:36:53.743Z,10.23
2022-12-01T06:39:16.548Z,9.00
2022-12-01T06:41:39.506Z,10.30
2022-12-01T06:44:02.110Z,9.87
2022-12-01T06:46:24.604Z,9.20
2022-12-01T06:48:49.301Z,9.43
2022-12-01T06:51:11.700Z,11.20
2022-12-01T06:53:33.896Z,12.27
2022-12-01T06:56:00.557Z,9.77
2022-12-01T06:58:22.995Z,7.53
2022-12-01T07:00:51.740Z,7.53
2022-12-01T07:03:14.398Z,8.37
2022-12-01T07:05:36.774Z,10.40
2022-12-01T07:07:59.864Z,7.50
2022-12-01T07:10:22.366Z,7.57
2022-12-01T07:12:44.652Z,7.93
2022-12-01T07:15:07.969Z,7.77
2022-12-01T07:17:30.326Z,7.77
2022-12-01T07:19:52.793Z,7.37
2022-12-01T07:22:15.901Z,9.10
2022-12-01T07:24:38.306Z,7.13
2022-12-01T07:27:00.607Z,8.10
2022-12-01T07:29:22.869Z,11.13
2022-12-01T07:31:45.221Z,6.83
2022-12-01T07:34:16.686Z,6.77
2022-12-01T07:36:38.917Z,6.40
2022-12-01T07:39:04.818Z,7.77
2022-12-01T07:41:27.256Z,7.40
2022-12-01T07:43:50.160Z,7.17
2022-12-01T07:46:22.399Z,8.30
2022-12-01T07:48:45.743Z,7.17
2022-12-01T07:51:12.135Z,8.23
2022-12-01T07:53:34.464Z,8.53
2022-12-01T07:55:56.727Z,10.57
2022-12-01T07:58:19.149Z,7.90
2022-12-01T08:00:41.340Z,7.90
2022-12-01T08:03:03.611Z,9.83
2022-12-01T08:05:25.886Z,7.17
2022-12-01T08:07:48.271Z,7.87
2022-12-01T08:10:10.832Z,8.43
2022-12-01T08:12:33.003Z,8.10
2022-12-01T08:14:55.486Z,8.53
2022-12-01T08:17:17.777Z,7.93
2022-12-01T08:19:40.003Z,7.73
2022-12-01T08:22:02.243Z,7.37
2022-12-01T08:24:24.612Z,7.83
2022-12-01T08:26:46.886Z,7.63
2022-12-01T08:29:09.155Z,7.77
2022-12-01T08:31:32.803Z,8.67
2022-12-01T08:33:55.300Z,7.23
2022-12-01T08:36:17.958Z,7.30
2022-12-01T08:38:40.142Z,8.67
2022-12-01T08:41:06.667Z,7.40
2022-12-01T08:43:56.045Z,8.43
2022-12-01T08:46:12.168Z,7.37
2022-12-01T08:48:34.897Z,8.00
2022-12-01T08:51:03.530Z,8.97
2022-12-01T08:53:25.791Z,8.77
2022-12-01T08:55:48.075Z,9.43
2022-12-01T08:58:10.367Z,8.97
2022-12-01T09:00:32.596Z,9.73
2022-12-01T09:02:55.024Z,9.53
2022-12-01T09:05:17.324Z,9.27
2022-12-01T09:07:41.091Z,8.97
2022-12-01T09:10:03.421Z,8.20
2022-12-01T09:12:25.646Z,8.97
2022-12-01T09:14:49.719Z,7.73
2022-12-01T09:17:12.155Z,7.60
2022-12-01T09:19:34.364Z,9.00
2022-12-01T09:22:05.991Z,7.90
2022-12-01T09:24:28.311Z,7.53
2022-12-01T09:26:50.726Z,10.43
2022-12-01T09:29:14.179Z,8.63
2022-12-01T09:31:36.760Z,7.60
2022-12-01T09:34:00.550Z,8.97
2022-12-01T09:36:22.851Z,8.27
2022-12-01T09:38:45.030Z,9.17
2022-12-01T09:41:18.853Z,8.10
2022-12-01T09:43:42.258Z,8.63
2022-12-01T09:46:09.249Z,8.33
2022-12-01T09:48:42.494Z,9.67
2022-12-01T09:51:04.751Z,9.70
2022-12-01T09:53:29.628Z,10.03
2022-12-01T09:55:52.320Z,7.83
2022-12-01T09:58:29.619Z,8.67
2022-12-01T10:00:52.455Z,7.57
2022-12-01T10:03:33.583Z,9.77
2022-12-01T10:08:44.393Z,8.53
2022-12-01T10:11:15.652Z,8.80
2022-12-01T10:13:38.005Z,8.83
2022-12-01T10:16:03.279Z,9.87
2022-12-01T10:18:32.040Z,18.63
2022-12-01T10:21:06.095Z,9.60
2022-12-01T10:23:31.369Z,9.07
2022-12-01T10:25:58.069Z,8.13
2022-12-01T10:28:39.085Z,10.93
2022-12-01T10:31:08.982Z,9.77
2022-12-01T10:33:34.703Z,10.20
2022-12-01T10:35:57.799Z,8.33
2022-12-01T10:38:24.960Z,7.57
2022-12-01T10:40:47.379Z,9.97
2022-12-01T10:43:10.524Z,9.53
2022-12-01T10:45:40.745Z,7.57
2022-12-01T10:48:08.989Z,11.53
2022-12-01T10:50:31.452Z,8.47
2022-12-01T10:52:53.760Z,8.83
2022-12-01T10:55:27.011Z,8.90
2022-12-01T10:57:49.396Z,8.50
2022-12-01T11:00:51.354Z,10.33
2022-12-01T11:03:04.659Z,9.73
2022-12-01T11:05:38.460Z,9.53
2022-12-01T11:08:00.780Z,8.33
2022-12-01T11:10:31.164Z,10.60
2022-12-01T11:13:05.707Z,10.33
2022-12-01T11:15:29.899Z,9.53
2022-12-01T11:18:02.441Z,10.40
2022-12-01T11:20:37.484Z,12.97
2022-12-01T11:23:35.409Z,9.20
2022-12-01T11:25:57.650Z,9.83
2022-12-01T11:28:21.023Z,10.27
2022-12-01T11:30:43.760Z,9.17
2022-12-01T11:33:05.980Z,12.87
2022-12-01T11:35:30.212Z,13.87
2022-12-01T11:38:28.263Z,10.93
2022-12-01T11:40:50.623Z,8.77
2022-12-01T11:43:19.837Z,10.93
2022-12-01T11:45:42.204Z,11.53
2022-12-01T11:48:04.740Z,10.53
2022-12-01T11:50:28.370Z,11.20
2022-12-01T11:52:50.602Z,12.33
2022-12-01T11:55:12.870Z,12.67
2022-12-01T11:57:35.441Z,12.03
2022-12-01T11:59:57.679Z,11.73
2022-12-01T12:02:38.549Z,10.57
2022-12-01T12:05:21.144Z,13.63
2022-12-01T12:07:43.487Z,11.07
2022-12-01T12:10:29.900Z,13.97
2022-12-01T12:13:01.316Z,13.40
2022-12-01T12:15:42.409Z,13.47
2022-12-01T12:18:23.674Z,11.90
2022-12-01T12:20:45.936Z,12.13
2022-12-01T12:23:11.192Z,12.87
2022-12-01T12:25:44.208Z,14.63
2022-12-01T12:28:13.875Z,13.67
2022-12-01T12:31:04.445Z,13.70
2022-12-01T12:33:39.618Z,12.33
2022-12-01T12:36:02.388Z,15.23
2022-12-01T12:38:51.107Z,15.33
2022-12-01T12:41:46.962Z,19.80
2022-12-01T12:44:09.177Z,17.17
2022-12-01T12:46:58.121Z,14.43
2022-12-01T12:50:06.010Z,18.00
2022-12-01T12:52:33.505Z,19.00
2022-12-01T12:55:02.698Z,15.43
2022-12-01T12:57:27.811Z,16.03
2022-12-01T13:00:07.405Z,16.50
2022-12-01T13:02:42.228Z,15.20
2022-12-01T13:05:23.636Z,18.40
2022-12-01T13:07:56.588Z,15.83
2022-12-01T13:10:38.295Z,17.37
2022-12-01T13:13:15.400Z,17.53
2022-12-01T13:15:39.287Z,18.30
2022-12-01T13:18:16.139Z,17.03
2022-12-01T13:20:44.924Z,17.00
2022-12-01T13:23:12.705Z,18.70
2022-12-01T13:25:43.843Z,17.33
2022-12-01T13:28:15.812Z,17.03
2022-12-01T13:30:38.880Z,18.90
2022-12-01T13:33:08.358Z,18.43
2022-12-01T13:36:21.344Z,21.27
2022-12-01T13:38:26.414Z,19.70
2022-12-01T13:40:49.453Z,18.13
2022-12-01T13:43:20.711Z,17.30
2022-12-01T13:45:50.708Z,18.57
2022-12-01T13:48:34.487Z,19.63
2022-12-01T13:51:03.723Z,18.60
2022-12-01T13:53:30.724Z,21.57
2022-12-01T13:56:19.361Z,22.77
2022-12-01T13:58:43.951Z,21.27
2022-12-01T14:01:22.766Z,22.87
2022-12-01T14:03:59.592Z,24.90
2022-12-01T14:06:22.600Z,40.47
2022-12-01T14:08:52.735Z,26.90
2022-12-01T14:11:26.185Z,24.30
2022-12-01T14:13:55.633Z,21.27
2022-12-01T14:16:18.259Z,23.00
2022-12-01T14:18:43.439Z,23.30
2022-12-01T14:21:08.032Z,22.00
2022-12-01T14:23:34.076Z,23.67
2022-12-01T14:26:02.446Z,22.13
2022-12-01T14:28:47.215Z,22.37
2022-12-01T14:31:13.195Z,21.50
2022-12-01T14:33:56.755Z,23.37
2022-12-01T14:36:26.367Z,24.03
2022-12-01T14:38:49.331Z,25.13
2022-12-01T14:41:18.203Z,25.17
2022-12-01T14:44:06.142Z,25.57
2022-12-01T14:46:30.238Z,22.87
2022-12-01T14:48:55.541Z,30.20
2022-12-01T14:51:30.756Z,21.30
2022-12-01T14:54:02.943Z,21.73
2022-12-01T14:56:26.727Z,19.80
2022-12-01T14:58:54.475Z,20.90
2022-12-01T15:01:23.633Z,18.50
2022-12-01T15:03:53.170Z,20.67
2022-12-01T15:06:28.616Z,20.10
2022-12-01T15:09:32.732Z,19.77
2022-12-01T15:12:01.017Z,22.87
2022-12-01T15:14:38.905Z,20.77
2022-12-01T15:17:05.905Z,17.53
2022-12-01T15:19:40.198Z,17.20
2022-12-01T15:22:09.843Z,17.37
2022-12-01T15:24:37.458Z,16.77
2022-12-01T15:29:42.013Z,14.73
2022-12-01T15:32:24.337Z,14.83
2022-12-01T15:34:50.542Z,15.13
2022-12-01T15:37:17.139Z,18.30
2022-12-01T15:40:35.713Z,15.80
2022-12-01T15:42:48.715Z,16.17
2022-12-01T15:45:17.196Z,16.00
2022-12-01T15:47:46.084Z,16.23
2022-12-01T15:50:27.058Z,18.13
2022-12-01T15:52:55.539Z,18.63
2022-12-01T15:55:40.768Z,18.77
2022-12-01T15:58:09.690Z,16.90
2022-12-01T16:00:32.128Z,18.10
2022-12-01T16:02:56.652Z,18.13
2022-12-01T16:05:30.028Z,18.97
2022-12-01T16:10:45.491Z,14.97
2022-12-01T16:13:26.796Z,20.57
2022-12-01T16:15:51.897Z,15.93
2022-12-01T16:18:32.121Z,16.70
2022-12-01T16:20:54.591Z,16.47
2022-12-01T16:23:22.641Z,14.37
2022-12-01T16:25:47.756Z,16.60
2022-12-01T16:28:36.158Z,14.90
2022-12-01T16:31:00.723Z,17.67
2022-12-01T16:33:29.967Z,16.53
2022-12-01T16:35:53.480Z,15.03
2022-12-01T16:38:20.649Z,13.97
2022-12-01T16:40:47.971Z,15.40
2022-12-01T16:43:14.858Z,14.43
2022-12-01T16:45:37.574Z,13.70
2022-12-01T16:48:03.555Z,12.13
2022-12-01T16:50:30.929Z,11.60
2022-12-01T16:52:56.333Z,11.57
2022-12-01T16:55:43.698Z,11.53
2022-12-01T16:58:08.554Z,12.03
2022-12-01T17:00:34.367Z,11.70
2022-12-01T17:02:57.312Z,11.73
2022-12-01T17:05:22.594Z,10.03
2022-12-01T17:07:57.440Z,10.33
2022-12-01T17:10:20.271Z,9.47
2022-12-01T17:12:45.394Z,9.77
2022-12-01T17:15:16.763Z,11.40
2022-12-01T17:17:39.703Z,13.53
2022-12-01T17:20:02.785Z,10.80
2022-12-01T17:22:50.948Z,12.07
2022-12-01T17:25:15.998Z,10.47
2022-12-01T17:27:43.862Z,11.03
2022-12-01T17:30:07.834Z,10.20
2022-12-01T17:32:36.727Z,9.83
2022-12-01T17:34:59.983Z,10.83
2022-12-01T17:37:30.612Z,9.47
2022-12-01T17:39:54.503Z,10.90
2022-12-01T17:42:21.223Z,10.10
2022-12-01T17:44:46.632Z,9.97
2022-12-01T17:47:20.959Z,10.17
2022-12-01T17:49:44.276Z,10.77
2022-12-01T17:52:07.013Z,10.40
2022-12-01T17:54:29.528Z,10.77
2022-12-01T17:56:52.025Z,11.47
2022-12-01T17:59:14.823Z,13.60
2022-12-01T18:01:43.806Z,15.33
2022-12-01T18:04:16.762Z,12.70
2022-12-01T18:06:39.380Z,12.73
2022-12-01T18:09:10.671Z,11.30
2022-12-01T18:11:40.880Z,13.47
2022-12-01T18:14:03.442Z,13.27
2022-12-01T18:16:29.839Z,12.60
2022-12-01T18:18:52.380Z,11.57
2022-12-01T18:21:17.500Z,14.97
2022-12-01T18:23:43.400Z,13.03
2022-12-01T18:26:16.032Z,14.03
2022-12-01T18:28:39.030Z,11.97
2022-12-01T18:31:27.107Z,13.30
2022-12-01T18:33:52.302Z,13.43
2022-12-01T18:36:16.123Z,12.13
2022-12-01T18:38:44.204Z,13.07
2022-12-01T18:41:06.935Z,12.03
2022-12-01T18:43:33.087Z,13.13
2022-12-01T18:46:02.184Z,13.37
2022-12-01T18:48:24.724Z,13.83
2022-12-01T18:50:47.363Z,12.73
2022-12-01T18:53:10.536Z,13.33
2022-12-01T18:55:35.124Z,14.70
2022-12-01T18:57:58.053Z,17.53
2022-12-01T19:00:20.677Z,16.67
2022-12-01T19:02:46.729Z,16.33
2022-12-01T19:05:20.528Z,13.53
2022-12-01T19:07:44.361Z,22.67
2022-12-01T19:10:09.710Z,18.23
2022-12-01T19:12:37.828Z,27.33
2022-12-01T19:15:06.052Z,23.70
2022-12-01T19:17:29.396Z,20.40
2022-12-01T19:19:58.119Z,17.27
2022-12-01T19:22:21.354Z,16.23
2022-12-01T19:24:50.417Z,16.97
2022-12-01T19:27:13.194Z,14.63
2022-12-01T19:29:41.879Z,15.17
2022-12-01T19:32:05.239Z,16.17
2022-12-01T19:34:27.680Z,16.17
2022-12-01T19:37:03.529Z,16.33
2022-12-01T19:39:25.890Z,16.80
2022-12-01T19:41:50.364Z,18.20
2022-12-01T19:44:15.862Z,20.53
2022-12-01T19:46:39.020Z,16.60
2022-12-01T19:49:05.848Z,20.97
2022-12-01T19:51:38.939Z,20.23
2022-12-01T19:54:01.876Z,19.23
2022-12-01T19:56:33.669Z,20.63
2022-12-01T19:58:57.431Z,17.93
2022-12-01T20:01:23.704Z,19.73
2022-12-01T20:03:53.678Z,19.57
2022-12-01T20:06:26.757Z,20.80
2022-12-01T20:08:53.291Z,24.57
2022-12-01T20:14:00.902Z,28.77
2022-12-01T20:16:24.721Z,30.97
2022-12-01T20:18:51.743Z,27.20
2022-12-01T20:21:26.260Z,24.63
2022-12-01T20:26:35.335Z,25.07
2022-12-01T20:29:07.454Z,24.70
2022-12-01T20:31:31.301Z,29.87
2022-12-01T20:33:55.518Z,30.30
2022-12-01T20:36:19.136Z,29.00
2022-12-01T20:38:42.325Z,30.73
2022-12-01T20:41:12.649Z,29.00
2022-12-01T20:43:36.642Z,30.53
2022-12-01T20:45:59.524Z,32.70
2022-12-01T20:48:33.897Z,34.60
2022-12-01T20:51:11.712Z,36.63
2022-12-01T20:53:40.376Z,33.13
2022-12-01T20:56:09.471Z,36.57
2022-12-01T20:58:37.786Z,35.67
2022-12-01T21:01:10.284Z,40.63
2022-12-01T21:03:34.253Z,37.70
2022-12-01T21:06:02.978Z,39.13
2022-12-01T21:08:25.724Z,41.70
2022-12-01T21:10:48.275Z,41.47
2022-12-01T21:13:38.658Z,40.23
2022-12-01T21:16:06.947Z,39.90
2022-12-01T21:19:04.290Z,40.77
2022-12-01T21:21:27.553Z,36.50
2022-12-01T21:23:54.493Z,38.90
2022-12-01T21:26:26.966Z,40.50
2022-12-01T21:28:59.561Z,37.97
2022-12-01T21:31:23.390Z,39.77
2022-12-01T21:33:46.671Z,39.60
2022-12-01T21:36:16.966Z,36.23
2022-12-01T21:38:39.417Z,34.87
2022-12-01T21:44:02.017Z,38.17
2022-12-01T21:46:24.477Z,38.10
2022-12-01T21:48:47.068Z,38.03
2022-12-01T21:51:28.194Z,37.60
2022-12-01T21:53:56.401Z,39.53
2022-12-01T21:56:22.011Z,33.90
2022-12-01T21:58:45.016Z,40.60
2022-12-01T22:01:42.494Z,37.83
2022-12-01T22:04:11.750Z,38.83
2022-12-01T22:06:39.604Z,38.80
2022-12-01T22:09:03.092Z,35.23
2022-12-01T22:11:26.755Z,39.50
2022-12-01T22:13:52.944Z,38.40
2022-12-01T22:16:22.310Z,37.80
2022-12-01T22:18:50.346Z,36.03
2022-12-01T22:21:24.877Z,37.93
2022-12-01T22:23:47.339Z,38.47
2022-12-01T22:26:15.082Z,41.73
2022-12-01T22:28:37.268Z,37.70
2022-12-01T22:30:59.614Z,40.20
2022-12-01T22:33:24.228Z,38.90
2022-12-01T22:35:50.772Z,36.67
2022-12-01T22:38:16.519Z,42.53
2022-12-01T22:40:51.399Z,39.07
2022-12-01T22:43:16.440Z,39.17
2022-12-01T22:45:39.040Z,36.97
2022-12-01T22:48:02.773Z,39.70
2022-12-01T22:50:34.259Z,41.53
2022-12-01T22:53:02.434Z,52.13
2022-12-01T22:55:27.331Z,43.87
2022-12-01T22:57:49.997Z,39.27
2022-12-01T23:00:25.827Z,42.30
2022-12-01T23:02:48.873Z,39.63
2022-12-01T23:05:26.882Z,38.43
2022-12-01T23:07:50.808Z,40.40
2022-12-01T23:10:14.323Z,38.83
2022-12-01T23:12:37.444Z,39.40
2022-12-01T23:15:01.839Z,42.27
2022-12-01T23:17:26.544Z,35.73
2022-12-01T23:19:50.416Z,38.70
2022-12-01T23:22:13.787Z,36.30
2022-12-01T23:24:36.428Z,36.60
2022-12-01T23:26:59.171Z,39.90
2022-12-01T23:29:23.660Z,34.93
2022-12-01T23:31:54.146Z,38.93
2022-12-01T23:34:17.455Z,48.63
2022-12-01T23:39:19.568Z,42.57
2022-12-01T23:41:43.704Z,41.83
2022-12-01T23:44:13.209Z,45.30
2022-12-01T23:46:37.861Z,46.70
2022-12-01T23:49:02.281Z,45.63
2022-12-01T23:51:26.237Z,44.77
2022-12-01T23:53:48.818Z,49.30
2022-12-01T23:56:13.308Z,44.13
2022-12-01T23:58:36.045Z,42.70
